Craig, AK

10:30 PM AKDT on September 30, 2016 (GMT -0800)
Klawock | | Change Station

Elev 79 ft 55.58 °N, 133.08 °W | Updated 37 minutes ago

Clear
Clear
46 °F
Feels Like 43 °F
N
6
Wind Variable Wind from NNW

Today
High -- | Low -- °F
--% Chance of Precip.
Yesterday
High -- | Low -- °F
Precip. -- in
Pressure 30.03 in
Visibility 10.0 miles
Clouds Clear
Windchill 43 °F
Dew Point 39 °F
Humidity 76%
Rainfall 0.03 in
Snow Depth Not available.
6:54 AM 6:28 PM
New Moon, 0% visible
METAR PAKW 010553Z AUTO 34005KT 10SM CLR 08/04 A3003 RMK AO2 SLP169 T00780039 10128 20061 53005 TSNO $
Pressure 30.03 in
Visibility 10.0 miles
Clouds Clear
Windchill 43 °F
Dew Point 39 °F
Humidity 76%
Rainfall 0.03 in
Snow Depth Not available.
6:54 AM 6:28 PM
New Moon, 0% visible
METAR PAKW 010553Z AUTO 34005KT 10SM CLR 08/04 A3003 RMK AO2 SLP169 T00780039 10128 20061 53005 TSNO $

10-Day Weather Forecast

Almanac

Astronomy

Sep. 30, 2016 Rise Set
Actual Time
Civil Twilight
Nautical Twilight
Astronomical Twilight
Moon
Length of Visible Light
Length of Day
Tomorrow will be .
, % of the Moon is Illuminated

Today's Extremes

State Highs State Lows

Community

WunderPhotos

Upload Photos

1,942,898 photos uploaded!

WunderBlog® & News

Nearby

Air Quality

  Air Quality AQ Index Pollutant
Not available.

Snow Depth

Station Depth Elevation

Earthquake Activity

City Distance Mag. Time & Date
Minimum magnitude displayed is 2.5.

Coastal Water Temperatures

Place Temperature

Stations

Nearby Weather Stations

Station Location Temp. Windchill Dew Point Humidity Wind Precip. Elev Updated Type
                   

Watches & Warnings

There are currently no watches in effect.